Time;durP1;ratioP1;P1;durP2;ratioP2;P2;SDS_P1;SDS_P2;PMS_P1;PMS_P2;Temp;Humidity;BMP_temperature;BMP_pressure;BME280_temperature;BME280_humidity;BME280_pressure;Samples;Min_cycle;Max_cycle;Signal;HPM_P1;HPM_P2
2022/06/30 00:00:30;;;;;;;12.80;3.60;;;;;;;17.00;52.09;99788.91;5032415;28;20049;-42
2022/06/30 00:02:57;;;;;;;14.43;4.10;;;;;;;16.99;52.12;99795.09;5029813;28;20052;-41
2022/06/30 00:05:23;;;;;;;17.98;4.40;;;;;;;16.97;51.98;99794.34;5030738;28;20098;-42
2022/06/30 00:07:49;;;;;;;19.77;4.00;;;;;;;16.96;52.47;99786.56;5032463;28;20525;-41
2022/06/30 00:10:14;;;;;;;12.32;4.03;;;;;;;16.86;52.36;99780.97;5029295;28;20568;-42
2022/06/30 00:12:40;;;;;;;14.07;4.30;;;;;;;16.90;52.52;99793.84;5047341;28;20520;-42
2022/06/30 00:15:08;;;;;;;22.58;4.18;;;;;;;16.88;52.62;99789.63;5012704;28;20421;-42
2022/06/30 00:17:33;;;;;;;11.73;3.70;;;;;;;16.86;52.80;99787.09;5012546;28;20057;-41
2022/06/30 00:20:00;;;;;;;14.52;4.03;;;;;;;16.85;53.04;99792.44;5021951;28;20045;-42
2022/06/30 00:22:26;;;;;;;18.90;4.78;;;;;;;16.85;52.78;99789.81;5020872;28;20384;-42
2022/06/30 00:24:52;;;;;;;20.08;4.60;;;;;;;16.84;53.07;99794.22;5030714;28;20049;-42
2022/06/30 00:27:19;;;;;;;17.27;4.82;;;;;;;16.82;53.03;99797.84;5022040;28;20046;-43
2022/06/30 00:29:45;;;;;;;14.30;4.95;;;;;;;16.68;53.02;99775.03;5020930;28;20094;-42
2022/06/30 00:32:12;;;;;;;14.15;4.82;;;;;;;16.79;53.49;99793.66;5017981;28;20576;-43
2022/06/30 00:34:38;;;;;;;22.17;5.47;;;;;;;16.77;53.60;99798.13;5030463;28;20167;-41
2022/06/30 00:37:04;;;;;;;16.15;5.40;;;;;;;16.75;53.45;99786.00;5018371;28;20065;-42
2022/06/30 00:39:30;;;;;;;19.48;5.15;;;;;;;16.73;53.39;99791.38;5022634;28;20118;-42
2022/06/30 00:41:56;;;;;;;17.77;5.97;;;;;;;16.70;53.47;99786.28;5022366;28;20033;-41
2022/06/30 00:44:22;;;;;;;19.25;5.60;;;;;;;16.68;53.53;99782.91;5017483;28;20038;-42
2022/06/30 00:46:48;;;;;;;16.55;5.10;;;;;;;16.65;53.57;99783.06;4982208;28;20037;-41
2022/06/30 00:49:14;;;;;;;23.23;6.03;;;;;;;16.63;54.08;99787.59;5021803;28;20045;-42
2022/06/30 00:51:39;;;;;;;17.10;5.90;;;;;;;16.61;54.12;99783.34;5027382;28;20048;-42
2022/06/30 00:54:06;;;;;;;25.30;6.05;;;;;;;16.59;53.86;99783.41;5031520;28;20064;-42
2022/06/30 00:56:34;;;;;;;36.35;6.95;;;;;;;16.57;54.09;99777.41;5022531;28;20045;-41
2022/06/30 00:59:03;;;;;;;19.02;9.05;;;;;;;16.56;54.20;99774.84;5028902;28;20255;-41
2022/06/30 01:01:30;;;;;;;19.80;5.95;;;;;;;16.52;54.31;99780.28;5037217;28;20397;-41
2022/06/30 01:03:56;;;;;;;22.67;6.45;;;;;;;16.47;54.56;99768.38;5021338;28;20038;-42
2022/06/30 01:06:22;;;;;;;22.58;6.78;;;;;;;16.46;54.63;99775.38;5010753;28;20068;-42
2022/06/30 01:08:49;;;;;;;20.98;6.38;;;;;;;16.38;54.53;99756.59;5020942;28;20889;-42
2022/06/30 01:14:01;;;;;;;21.25;6.60;;;;;;;16.38;54.79;99748.72;5026754;28;20124;-41
2022/06/30 01:16:27;;;;;;;21.38;6.50;;;;;;;16.45;54.90;99763.19;5025602;28;20498;-42
2022/06/30 01:18:53;;;;;;;25.48;6.75;;;;;;;16.45;54.87;99762.34;5016942;28;20884;-42
2022/06/30 01:21:19;;;;;;;23.00;6.05;;;;;;;16.44;54.96;99764.13;5011648;28;20049;-46
2022/06/30 01:23:45;;;;;;;23.75;6.38;;;;;;;16.45;55.00;99763.19;5020943;28;20030;-41
2022/06/30 01:26:11;;;;;;;22.20;6.57;;;;;;;16.44;54.72;99773.75;5024525;28;20121;-41
2022/06/30 01:28:37;;;;;;;23.75;6.30;;;;;;;16.43;54.95;99772.91;5018239;28;20178;-41
2022/06/30 01:31:03;;;;;;;28.45;5.97;;;;;;;16.43;55.32;99777.34;5030503;28;20102;-43
2022/06/30 01:33:28;;;;;;;17.63;5.40;;;;;;;16.33;55.01;99752.56;5029632;28;20048;-42
2022/06/30 01:35:55;;;;;;;24.33;6.15;;;;;;;16.39;55.42;99760.91;5001961;28;20198;-42
2022/06/30 01:38:21;;;;;;;24.83;7.18;;;;;;;16.38;55.72;99761.84;5013167;28;20184;-43
2022/06/30 01:40:46;;;;;;;32.92;5.97;;;;;;;16.37;55.61;99761.94;5025879;28;20124;-42
2022/06/30 01:43:13;;;;;;;23.60;5.95;;;;;;;16.37;55.49;99767.19;5012345;28;20057;-42
2022/06/30 01:45:39;;;;;;;19.60;5.45;;;;;;;16.35;55.93;99756.78;5028488;28;20038;-42
2022/06/30 01:48:06;;;;;;;16.13;5.43;;;;;;;16.25;55.86;99745.13;5029279;28;20117;-41
2022/06/30 01:50:32;;;;;;;24.05;5.88;;;;;;;16.37;55.70;99759.31;5027132;28;20041;-42
2022/06/30 01:52:59;;;;;;;21.95;5.60;;;;;;;16.37;56.21;99756.69;5011198;28;20442;-42
2022/06/30 01:55:25;;;;;;;21.75;5.53;;;;;;;16.37;56.09;99752.31;5027071;28;20037;-42
2022/06/30 01:57:51;;;;;;;20.98;5.68;;;;;;;16.26;56.44;99730.22;5027165;28;20052;-42
2022/06/30 02:00:21;;;;;;;18.83;5.40;;;;;;;16.42;56.69;99750.25;5026083;28;20457;-42
2022/06/30 02:02:50;;;;;;;28.00;6.20;;;;;;;16.45;56.66;99750.06;5013446;28;20127;-42
2022/06/30 02:05:17;;;;;;;19.27;4.90;;;;;;;16.47;56.53;99744.75;5027303;28;20529;-42
2022/06/30 02:07:43;;;;;;;16.13;4.57;;;;;;;16.49;56.50;99743.69;5030064;28;20053;-43
2022/06/30 02:10:21;;;;;;;18.35;4.90;;;;;;;16.54;56.90;99753.94;5028708;28;20044;-42
2022/06/30 02:12:48;;;;;;;18.20;5.00;;;;;;;16.57;56.73;99740.66;5026460;28;20037;-42
2022/06/30 02:15:24;;;;;;;14.50;4.32;;;;;;;16.60;56.79;99753.63;5021142;28;20053;-41
2022/06/30 02:17:52;;;;;;;18.00;4.65;;;;;;;16.64;56.54;99743.81;5030118;28;20029;-42
2022/06/30 02:20:21;;;;;;;15.40;4.32;;;;;;;16.51;56.51;99714.75;5010801;28;20033;-42
2022/06/30 02:22:48;;;;;;;12.07;4.10;;;;;;;16.68;56.53;99740.91;5010396;28;20041;-42
2022/06/30 02:25:15;;;;;;;8.95;3.47;;;;;;;16.62;56.14;99724.66;5025633;28;20406;-42
2022/06/30 02:27:40;;;;;;;10.45;3.60;;;;;;;16.76;56.75;99740.44;5021072;28;20125;-42
2022/06/30 02:30:07;;;;;;;10.40;3.42;;;;;;;16.80;56.11;99745.41;5018648;28;20128;-42
2022/06/30 02:32:32;;;;;;;12.73;3.83;;;;;;;16.85;56.33;99737.31;5028630;28;20033;-42
2022/06/30 02:34:58;;;;;;;8.32;3.03;;;;;;;16.87;56.29;99751.16;5028096;28;20086;-43
2022/06/30 02:37:24;;;;;;;14.38;3.55;;;;;;;16.90;56.09;99749.19;5021508;28;20465;-42
2022/06/30 02:39:50;;;;;;;11.45;4.20;;;;;;;16.91;55.95;99748.25;5027695;28;20042;-42
2022/06/30 02:42:16;;;;;;;12.43;3.78;;;;;;;16.93;55.69;99753.44;5021868;28;20038;-42
2022/06/30 02:44:42;;;;;;;13.35;3.25;;;;;;;16.92;55.95;99755.22;5018094;28;20041;-41
2022/06/30 02:47:07;;;;;;;11.68;3.45;;;;;;;16.94;55.71;99752.50;5026708;28;20045;-42
2022/06/30 02:49:35;;;;;;;8.27;3.13;;;;;;;16.98;55.64;99750.53;5028625;28;20046;-42
2022/06/30 02:52:00;;;;;;;12.90;3.53;;;;;;;17.03;55.35;99753.72;5020888;28;20054;-42
2022/06/30 02:54:26;;;;;;;13.57;3.40;;;;;;;17.06;55.71;99754.38;5014097;28;20424;-42
2022/06/30 02:56:52;;;;;;;16.95;3.60;;;;;;;17.09;55.44;99756.00;5011271;28;20468;-42
2022/06/30 02:59:18;;;;;;;9.90;3.53;;;;;;;17.13;55.34;99758.34;5011489;28;20068;-43
2022/06/30 03:01:44;;;;;;;9.80;3.05;;;;;;;17.15;55.08;99753.84;5011542;28;20064;-42
2022/06/30 03:04:09;;;;;;;10.02;3.55;;;;;;;17.18;55.17;99748.41;5020849;28;20053;-42
2022/06/30 03:06:35;;;;;;;12.15;3.33;;;;;;;17.22;54.95;99741.16;5027406;28;20132;-41
2022/06/30 03:09:02;;;;;;;10.65;3.38;;;;;;;17.22;54.68;99742.00;5015592;28;20062;-43
2022/06/30 03:11:28;;;;;;;13.02;3.53;;;;;;;17.27;54.80;99745.22;5050270;28;20080;-42
2022/06/30 03:13:56;;;;;;;14.73;3.50;;;;;;;17.30;54.31;99746.81;5031814;28;20038;-42
2022/06/30 03:16:23;;;;;;;14.32;3.95;;;;;;;17.19;54.46;99725.59;5024239;28;20046;-42
2022/06/30 03:18:49;;;;;;;10.95;3.30;;;;;;;17.34;54.31;99745.69;5021914;28;20048;-43
2022/06/30 03:21:15;;;;;;;8.77;2.88;;;;;;;17.44;54.04;99748.59;5024013;28;20045;-42
2022/06/30 03:23:40;;;;;;;8.23;3.50;;;;;;;17.48;53.65;99747.50;5032847;28;20532;-43
2022/06/30 03:26:06;;;;;;;12.20;3.88;;;;;;;17.54;53.83;99747.09;5020167;28;20087;-43
2022/06/30 03:28:32;;;;;;;7.47;3.50;;;;;;;17.60;53.87;99752.00;5015314;28;20041;-42
2022/06/30 03:30:59;;;;;;;12.73;3.30;;;;;;;17.65;53.59;99749.94;5016677;28;20038;-42
2022/06/30 03:33:26;;;;;;;9.70;3.05;;;;;;;17.69;53.44;99752.25;5032738;28;20120;-43
2022/06/30 03:35:53;;;;;;;9.32;3.45;;;;;;;17.77;53.26;99746.53;5029872;28;20498;-43
2022/06/30 03:38:18;;;;;;;10.00;3.50;;;;;;;17.84;53.37;99747.00;5032953;28;20080;-42
2022/06/30 03:40:45;;;;;;;13.98;3.53;;;;;;;17.89;53.30;99742.31;5028973;28;20497;-43
2022/06/30 03:43:11;;;;;;;11.90;4.90;;;;;;;17.96;53.19;99747.06;5016854;28;20097;-42
2022/06/30 03:45:37;;;;;;;13.02;3.35;;;;;;;18.01;52.82;99752.03;5028539;28;20549;-42
2022/06/30 03:48:04;;;;;;;11.90;3.15;;;;;;;18.08;52.79;99748.06;5031239;28;20173;-42
2022/06/30 03:50:31;;;;;;;13.77;3.80;;;;;;;18.14;52.92;99742.41;5016942;28;20046;-43
2022/06/30 03:52:57;;;;;;;12.68;3.30;;;;;;;18.21;52.41;99749.00;5029833;28;20041;-41
2022/06/30 03:55:23;;;;;;;8.73;2.95;;;;;;;18.11;52.14;99725.03;5032040;28;20033;-45
2022/06/30 03:57:49;;;;;;;12.65;3.15;;;;;;;18.34;52.13;99760.38;5028045;28;20505;-42
2022/06/30 04:00:15;;;;;;;14.43;3.40;;;;;;;18.43;52.06;99751.03;5024409;28;20046;-43
2022/06/30 04:02:41;;;;;;;6.82;2.65;;;;;;;18.52;51.82;99747.81;5026124;28;20041;-43
2022/06/30 04:05:07;;;;;;;11.20;2.67;;;;;;;18.58;51.74;99745.63;5031122;28;20034;-42
2022/06/30 04:07:42;;;;;;;21.55;4.78;;;;;;;18.66;51.55;99754.84;5023576;28;20509;-43
2022/06/30 04:10:10;;;;;;;16.30;3.17;;;;;;;18.63;51.14;99740.09;5032620;28;20044;-42
2022/06/30 04:12:36;;;;;;;16.08;3.65;;;;;;;18.82;50.96;99753.72;5048534;28;20040;-42
2022/06/30 04:15:02;;;;;;;10.68;2.50;;;;;;;18.91;50.82;99752.25;5026709;28;20034;-43
2022/06/30 04:17:29;;;;;;;14.00;2.40;;;;;;;18.98;50.55;99751.75;5032117;28;20359;-42
2022/06/30 04:19:54;;;;;;;7.30;2.30;;;;;;;19.07;50.18;99750.25;5031742;28;20071;-42
2022/06/30 04:22:20;;;;;;;10.40;3.35;;;;;;;19.07;49.36;99725.69;5013601;28;20081;-42
2022/06/30 04:24:46;;;;;;;6.00;2.60;;;;;;;19.29;49.02;99742.56;5016651;28;20046;-41
2022/06/30 04:27:12;;;;;;;6.35;1.95;;;;;;;19.40;48.45;99745.31;5013364;28;20038;-42
2022/06/30 04:29:38;;;;;;;7.22;1.90;;;;;;;19.52;47.80;99740.16;5020208;28;20105;-43
2022/06/30 04:34:49;;;;;;;8.30;2.92;;;;;;;19.69;47.24;99742.44;5020615;28;20042;-43
2022/06/30 04:37:16;;;;;;;12.65;2.35;;;;;;;19.75;47.29;99745.50;5029982;28;20088;-44
2022/06/30 04:39:42;;;;;;;9.55;1.63;;;;;;;19.81;46.97;99739.78;5026496;28;20041;-42
2022/06/30 04:42:07;;;;;;;4.53;1.58;;;;;;;19.86;46.77;99732.38;5020901;28;20045;-43
2022/06/30 04:44:33;;;;;;;5.38;1.40;;;;;;;19.92;46.40;99728.47;5019859;28;20084;-42
2022/06/30 04:46:59;;;;;;;7.03;1.83;;;;;;;19.97;45.77;99720.22;5030372;28;20052;-47
2022/06/30 04:49:25;;;;;;;7.10;1.92;;;;;;;20.04;45.44;99721.47;5028035;28;20053;-43
2022/06/30 04:51:52;;;;;;;4.40;1.30;;;;;;;20.10;44.91;99729.75;4991186;28;20040;-42
2022/06/30 04:54:18;;;;;;;2.03;1.05;;;;;;;20.05;44.45;99716.03;5013888;28;20034;-42
2022/06/30 04:56:45;;;;;;;2.80;1.15;;;;;;;20.16;44.08;99728.47;5058882;28;20518;-45
2022/06/30 04:59:11;;;;;;;6.70;1.23;;;;;;;20.22;43.70;99730.66;5019173;28;20095;-43
2022/06/30 05:01:37;;;;;;;1.45;1.00;;;;;;;20.28;43.47;99728.41;5023426;28;20042;-45
2022/06/30 05:04:04;;;;;;;6.05;1.25;;;;;;;20.37;43.14;99728.72;5028578;28;20084;-43
2022/06/30 05:06:31;;;;;;;6.43;1.30;;;;;;;20.43;43.15;99725.63;5029584;28;20044;-44
2022/06/30 05:08:57;;;;;;;1.85;1.00;;;;;;;20.49;42.65;99728.66;4997222;28;20045;-49
2022/06/30 05:11:23;;;;;;;6.90;1.40;;;;;;;20.53;42.89;99729.28;5029451;28;20049;-41
2022/06/30 05:13:49;;;;;;;2.75;1.10;;;;;;;20.57;42.85;99730.72;5029315;28;20037;-43
2022/06/30 05:16:15;;;;;;;5.88;1.20;;;;;;;20.61;42.60;99735.69;4996866;28;20502;-43
2022/06/30 05:18:41;;;;;;;7.00;1.40;;;;;;;20.65;42.36;99725.72;5013577;28;20045;-42
2022/06/30 05:21:07;;;;;;;7.38;1.17;;;;;;;20.68;42.21;99728.97;5029967;28;20394;-44
2022/06/30 05:23:33;;;;;;;3.25;1.20;;;;;;;20.73;41.20;99722.50;4997509;28;20509;-42
2022/06/30 05:28:44;;;;;;;1.60;1.00;;;;;;;20.80;40.31;99718.44;5030634;28;20033;-43
2022/06/30 05:31:10;;;;;;;4.13;1.35;;;;;;;20.84;39.95;99725.16;5030955;28;20052;-43
2022/06/30 05:33:36;;;;;;;3.13;1.23;;;;;;;20.80;39.39;99706.06;5029596;28;20591;-44
2022/06/30 05:36:01;;;;;;;3.05;1.33;;;;;;;20.93;38.73;99721.84;5028728;28;20070;-43
2022/06/30 05:38:28;;;;;;;3.20;1.20;;;;;;;20.95;38.15;99718.09;5023025;28;20399;-41
2022/06/30 05:40:54;;;;;;;5.82;2.40;;;;;;;21.03;37.92;99730.75;5023546;28;20119;-42
2022/06/30 05:43:20;;;;;;;6.28;1.45;;;;;;;21.05;37.55;99718.22;5017825;28;20140;-44
2022/06/30 05:45:46;;;;;;;3.35;1.33;;;;;;;21.16;37.18;99730.66;5030362;28;20562;-44
2022/06/30 05:48:12;;;;;;;3.40;0.85;;;;;;;21.21;36.74;99723.22;5030560;28;20528;-42
2022/06/30 05:50:38;;;;;;;2.25;0.70;;;;;;;21.19;36.24;99710.13;5018554;28;20049;-43
2022/06/30 05:53:03;;;;;;;4.53;0.98;;;;;;;21.35;35.44;99721.19;4993539;28;20102;-42
2022/06/30 05:55:29;;;;;;;6.95;0.75;;;;;;;21.39;35.48;99717.34;5024008;28;20034;-43
2022/06/30 05:58:04;;;;;;;1.92;0.90;;;;;;;21.47;35.01;99724.66;5030627;28;20410;-43
2022/06/30 06:00:30;;;;;;;2.53;1.10;;;;;;;21.54;35.35;99734.66;5030612;28;20076;-42
2022/06/30 06:02:56;;;;;;;2.30;1.55;;;;;;;21.64;35.21;99740.06;5023199;28;20041;-43
2022/06/30 06:05:22;;;;;;;2.45;0.75;;;;;;;21.71;34.28;99724.53;5021685;28;20068;-42
2022/06/30 06:07:48;;;;;;;0.95;0.70;;;;;;;21.78;33.62;99718.63;5027008;28;20061;-43
2022/06/30 06:10:14;;;;;;;4.47;1.20;;;;;;;21.86;33.20;99731.25;5035923;28;20562;-44
2022/06/30 06:12:43;;;;;;;2.00;0.95;;;;;;;21.92;33.14;99725.47;5030281;28;20513;-42
2022/06/30 06:15:12;;;;;;;4.03;1.45;;;;;;;22.03;33.68;99727.28;5026017;28;20040;-44
2022/06/30 06:17:46;;;;;;;3.05;1.08;;;;;;;22.04;33.65;99711.25;5028904;28;20150;-43
2022/06/30 06:20:13;;;;;;;4.10;1.63;;;;;;;22.23;33.55;99724.72;5030231;28;20045;-44
2022/06/30 06:22:39;;;;;;;2.30;1.10;;;;;;;22.31;33.43;99726.72;5028837;28;20116;-46
2022/06/30 06:25:06;;;;;;;2.33;1.02;;;;;;;22.38;33.50;99727.91;5028631;28;20045;-47
2022/06/30 06:27:32;;;;;;;7.68;1.00;;;;;;;22.47;33.43;99731.59;5027519;28;20172;-43
2022/06/30 06:29:58;;;;;;;3.10;0.88;;;;;;;22.49;33.36;99714.59;5010003;28;20041;-44
2022/06/30 06:32:23;;;;;;;12.68;3.45;;;;;;;22.69;33.65;99729.69;5027123;28;20465;-43
2022/06/30 06:34:49;;;;;;;4.82;2.17;;;;;;;22.83;33.91;99727.72;5024973;28;20516;-41
2022/06/30 06:37:15;;;;;;;3.08;1.20;;;;;;;22.95;33.97;99722.22;5026729;28;20421;-41
2022/06/30 06:39:40;;;;;;;3.47;1.50;;;;;;;23.11;33.61;99714.66;5015275;28;20145;-45
2022/06/30 06:42:06;;;;;;;3.50;1.27;;;;;;;23.40;33.01;99714.78;5026213;28;20101;-45
2022/06/30 06:44:38;;;;;;;7.97;1.50;;;;;;;23.97;30.95;99708.00;5028644;28;20472;-44
2022/06/30 06:47:05;;;;;;;1.90;1.00;;;;;;;24.69;28.20;99694.34;5028627;28;20073;-43
2022/06/30 06:49:31;;;;;;;3.25;1.20;;;;;;;25.73;26.30;99710.16;5028185;28;20084;-46
2022/06/30 06:51:57;;;;;;;6.45;1.70;;;;;;;26.90;24.77;99714.53;5030701;28;20135;-43
2022/06/30 06:54:23;;;;;;;5.32;1.25;;;;;;;28.03;23.49;99723.13;5024679;28;20037;-46
2022/06/30 06:56:49;;;;;;;5.78;1.20;;;;;;;29.02;22.96;99718.56;5023346;28;20505;-46
2022/06/30 06:59:16;;;;;;;7.18;1.50;;;;;;;29.94;21.52;99722.47;5024389;28;20034;-47
2022/06/30 07:01:42;;;;;;;2.53;1.27;;;;;;;30.95;20.74;99715.03;5024556;28;20521;-51
2022/06/30 07:04:08;;;;;;;3.63;1.60;;;;;;;31.79;19.26;99715.66;5025362;28;20584;-55
2022/06/30 07:06:34;;;;;;;1.15;0.93;;;;;;;32.68;17.91;99714.38;5026562;28;20136;-47
2022/06/30 07:09:02;;;;;;;3.70;2.03;;;;;;;33.58;17.23;99711.72;5026191;28;20049;-50
2022/06/30 07:11:28;;;;;;;2.28;1.52;;;;;;;34.36;16.64;99692.28;5028278;28;20053;-46
2022/06/30 07:13:54;;;;;;;5.25;1.50;;;;;;;35.25;16.22;99708.94;5027448;28;20044;-50
2022/06/30 07:16:20;;;;;;;4.55;1.52;;;;;;;35.89;15.61;99710.00;5026016;28;20057;-47
2022/06/30 07:18:45;;;;;;;4.82;1.55;;;;;;;36.56;14.42;99712.09;5028397;28;20132;-47
2022/06/30 07:21:11;;;;;;;3.78;1.20;;;;;;;37.16;13.87;99718.72;5026515;28;20540;-50
2022/06/30 07:23:37;;;;;;;13.68;11.30;;;;;;;37.74;13.58;99712.88;5028237;28;20048;-50
2022/06/30 07:26:03;;;;;;;6.50;1.75;;;;;;;38.31;13.20;99726.97;5027653;28;20077;-51
2022/06/30 07:28:29;;;;;;;6.57;4.75;;;;;;;38.73;12.94;99706.91;5026859;28;20042;-48
2022/06/30 07:30:54;;;;;;;5.18;2.08;;;;;;;39.19;12.96;99721.59;5023950;28;20072;-46
2022/06/30 07:33:20;;;;;;;14.07;2.42;;;;;;;39.54;12.87;99724.28;5022547;28;20099;-50
2022/06/30 07:35:46;;;;;;;3.72;1.63;;;;;;;39.87;12.85;99729.06;5025377;28;20413;-47
2022/06/30 07:38:12;;;;;;;4.72;1.75;;;;;;;40.22;13.04;99713.44;5027444;28;20137;-47
2022/06/30 07:40:38;;;;;;;5.95;1.80;;;;;;;40.74;12.49;99727.72;5022620;28;20052;-47
2022/06/30 07:43:05;;;;;;;6.60;2.65;;;;;;;41.10;12.40;99728.28;5012576;28;20510;-49
2022/06/30 07:45:31;;;;;;;15.10;8.48;;;;;;;41.26;12.07;99719.25;5010198;28;20092;-49
2022/06/30 07:47:57;;;;;;;6.55;1.92;;;;;;;41.44;12.12;99716.25;5030445;28;20597;-44
2022/06/30 07:50:22;;;;;;;3.25;2.00;;;;;;;41.71;11.61;99711.72;5061814;28;20131;-48
2022/06/30 07:52:51;;;;;;;19.17;10.85;;;;;;;41.82;11.59;99701.72;5023929;28;20128;-48
2022/06/30 07:55:17;;;;;;;7.03;3.28;;;;;;;41.99;11.58;99718.88;5026568;28;20460;-45
2022/06/30 07:57:45;;;;;;;13.30;3.22;;;;;;;42.22;11.15;99706.81;5022867;28;20038;-47
2022/06/30 08:00:11;;;;;;;5.95;2.35;;;;;;;42.34;11.33;99715.72;5019728;28;20049;-52
2022/06/30 08:02:41;;;;;;;7.47;2.05;;;;;;;42.47;11.57;99715.28;5022898;28;20041;-45
2022/06/30 08:05:08;;;;;;;6.50;2.00;;;;;;;42.75;11.24;99703.22;5005127;28;20374;-48
2022/06/30 08:07:34;;;;;;;3.15;2.20;;;;;;;42.92;10.72;99695.66;5025139;28;20228;-47
2022/06/30 08:10:00;;;;;;;5.85;2.38;;;;;;;43.15;10.86;99702.69;5023543;28;20049;-46
2022/06/30 08:12:27;;;;;;;8.00;2.50;;;;;;;43.18;10.49;99691.22;5026130;28;20064;-49
2022/06/30 08:14:53;;;;;;;5.13;2.72;;;;;;;43.40;10.69;99691.03;5020325;28;20041;-47
2022/06/30 08:17:19;;;;;;;5.50;4.82;;;;;;;43.50;10.40;99685.63;5022733;28;20065;-48
2022/06/30 08:19:45;;;;;;;17.15;13.13;;;;;;;43.61;10.48;99681.00;5032592;28;20045;-44
2022/06/30 08:22:10;;;;;;;3.60;2.85;;;;;;;43.78;10.78;99687.94;5025724;28;20048;-48
2022/06/30 08:24:36;;;;;;;4.53;2.70;;;;;;;44.08;10.51;99686.38;5023180;28;20041;-48
2022/06/30 08:27:02;;;;;;;16.27;13.35;;;;;;;44.25;10.72;99678.72;5024812;28;20050;-47
2022/06/30 08:29:32;;;;;;;16.17;9.07;;;;;;;44.45;10.59;99681.50;5025751;28;20634;-49
2022/06/30 08:32:02;;;;;;;11.25;9.85;;;;;;;44.66;10.48;99672.19;5025536;28;20041;-50
2022/06/30 08:34:28;;;;;;;15.90;8.90;;;;;;;44.87;10.01;99664.75;5028694;28;20120;-48
2022/06/30 08:36:54;;;;;;;13.32;4.18;;;;;;;44.89;10.03;99679.00;5032031;28;20069;-48
2022/06/30 08:42:05;;;;;;;34.78;10.50;;;;;;;45.43;10.29;99665.47;5025419;28;20508;-50
2022/06/30 08:44:34;;;;;;;11.88;5.25;;;;;;;45.53;9.96;99659.09;5012080;28;20077;-51
2022/06/30 08:47:00;;;;;;;8.77;5.97;;;;;;;45.72;9.87;99668.31;5010835;28;20037;-51
2022/06/30 08:49:29;;;;;;;15.10;11.23;;;;;;;45.86;10.02;99668.53;5010827;28;20042;-53
2022/06/30 08:51:56;;;;;;;14.77;9.13;;;;;;;46.06;10.28;99660.16;5044071;28;20040;-50
2022/06/30 08:54:25;;;;;;;5.05;4.55;;;;;;;46.32;9.76;99656.09;5024747;28;20041;-51
2022/06/30 08:56:51;;;;;;;5.53;4.18;;;;;;;46.53;9.30;99673.28;5010668;28;20042;-50
2022/06/30 08:59:17;;;;;;;4.47;3.75;;;;;;;46.61;9.12;99667.16;5020715;28;20045;-52
2022/06/30 09:01:43;;;;;;;10.70;5.97;;;;;;;46.67;9.09;99667.94;5030228;28;20041;-54
2022/06/30 09:04:13;;;;;;;6.18;3.40;;;;;;;46.75;9.08;99668.13;5028702;28;20087;-49
2022/06/30 09:06:42;;;;;;;6.03;3.95;;;;;;;46.53;8.84;99654.03;5043531;28;20037;-50
2022/06/30 09:09:08;;;;;;;3.78;2.78;;;;;;;46.77;9.09;99654.06;5024661;28;20089;-46
2022/06/30 09:11:45;;;;;;;6.95;2.97;;;;;;;46.87;9.18;99634.69;5047936;28;20037;-51
2022/06/30 09:14:11;;;;;;;11.70;6.47;;;;;;;46.75;9.09;99629.59;5029094;28;20509;-49
2022/06/30 09:16:51;;;;;;;3.60;3.30;;;;;;;46.71;8.96;99641.47;5029858;28;20047;-52
2022/06/30 09:19:17;;;;;;;7.43;4.13;;;;;;;46.52;9.19;99648.81;5027923;28;20041;-53
2022/06/30 09:21:42;;;;;;;8.23;5.78;;;;;;;46.63;9.40;99645.69;5026979;28;20110;-51
2022/06/30 09:24:21;;;;;;;16.70;7.03;;;;;;;46.82;9.18;99645.75;5027741;28;20124;-51
2022/06/30 09:26:47;;;;;;;5.88;3.95;;;;;;;47.04;9.35;99645.28;5028339;28;20420;-51
2022/06/30 09:29:13;;;;;;;25.35;9.50;;;;;;;46.99;9.09;99637.06;5028120;28;20048;-51
2022/06/30 09:31:42;;;;;;;10.98;7.00;;;;;;;47.06;9.14;99643.03;5029532;28;20045;-51
2022/06/30 09:34:18;;;;;;;12.40;6.07;;;;;;;46.68;9.44;99631.06;5016134;28;20033;-51
2022/06/30 09:36:50;;;;;;;7.07;4.50;;;;;;;46.55;9.26;99634.47;5011875;28;20046;-51
2022/06/30 09:39:17;;;;;;;5.63;3.58;;;;;;;46.84;9.13;99634.47;5029124;28;20037;-50
2022/06/30 09:41:43;;;;;;;5.55;2.80;;;;;;;47.05;9.14;99622.13;5013615;28;20644;-49
2022/06/30 09:44:16;;;;;;;10.23;5.53;;;;;;;46.37;8.90;99625.00;5009854;28;20524;-50
2022/06/30 09:47:13;;;;;;;37.15;21.42;;;;;;;46.45;8.93;99620.78;5012920;28;20042;-52
2022/06/30 09:49:45;;;;;;;15.02;6.78;;;;;;;46.78;9.07;99620.75;5028253;28;20164;-53
2022/06/30 09:52:19;;;;;;;11.15;6.20;;;;;;;46.99;8.84;99621.38;5030226;28;20386;-54
2022/06/30 09:54:51;;;;;;;7.03;6.13;;;;;;;47.22;9.03;99625.22;5029870;28;20046;-53
2022/06/30 09:57:17;;;;;;;8.20;3.75;;;;;;;47.28;9.01;99626.00;5030169;28;20060;-47
2022/06/30 09:59:43;;;;;;;5.88;3.58;;;;;;;47.49;9.20;99619.09;5030327;28;20045;-47
2022/06/30 10:02:10;;;;;;;6.10;3.30;;;;;;;47.19;9.07;99603.78;5010962;28;20053;-52
2022/06/30 10:04:53;;;;;;;6.70;3.60;;;;;;;47.19;9.19;99603.78;5010591;28;20077;-51
2022/06/30 10:07:26;;;;;;;4.25;3.50;;;;;;;47.24;9.06;99608.41;5026514;28;20041;-48
2022/06/30 10:09:52;;;;;;;5.53;3.30;;;;;;;47.12;8.90;99597.81;5017967;28;20096;-48
2022/06/30 10:12:20;;;;;;;6.83;3.40;;;;;;;47.27;9.06;99610.56;5021580;28;20584;-50
2022/06/30 10:14:49;;;;;;;7.38;3.47;;;;;;;47.33;8.94;99607.47;5025788;28;20832;-52
2022/06/30 10:17:19;;;;;;;7.00;3.30;;;;;;;47.48;8.80;99598.16;5020586;28;20096;-49
2022/06/30 10:19:45;;;;;;;4.70;3.35;;;;;;;47.28;8.97;99598.44;5018622;28;20037;-49
2022/06/30 10:22:12;;;;;;;4.97;2.90;;;;;;;47.26;9.14;99601.50;5024497;28;20048;-51
2022/06/30 10:24:41;;;;;;;5.47;3.00;;;;;;;47.22;9.22;99589.41;5027448;28;20099;-52
2022/06/30 10:27:14;;;;;;;8.15;3.53;;;;;;;47.03;9.37;99591.31;5029091;28;20041;-52
2022/06/30 10:29:50;;;;;;;3.65;2.90;;;;;;;46.88;9.17;99592.28;5018467;28;20076;-47
2022/06/30 10:32:42;;;;;;;3.92;3.58;;;;;;;46.62;9.20;99582.69;5023025;28;20132;-49
2022/06/30 10:35:18;;;;;;;4.85;2.67;;;;;;;46.16;9.69;99582.25;5017886;28;20034;-46
2022/06/30 10:38:10;;;;;;;11.27;7.10;;;;;;;46.17;9.73;99592.16;5023581;28;20045;-46
2022/06/30 10:40:54;;;;;;;5.20;2.88;;;;;;;46.07;9.43;99582.03;5046605;28;20088;-47
2022/06/30 10:43:20;;;;;;;4.82;3.40;;;;;;;45.99;9.34;99579.09;5019391;28;20053;-48
2022/06/30 10:46:00;;;;;;;6.82;2.60;;;;;;;45.95;9.71;99579.69;5022783;28;20041;-46
2022/06/30 10:48:28;;;;;;;7.20;2.90;;;;;;;45.78;9.84;99564.66;5027854;28;20041;-47
2022/06/30 10:50:56;;;;;;;5.55;2.75;;;;;;;45.74;9.78;99569.09;5024226;28;20513;-50
2022/06/30 10:53:34;;;;;;;8.77;2.85;;;;;;;45.56;9.73;99565.09;5026161;28;20091;-51
2022/06/30 10:56:00;;;;;;;6.57;2.50;;;;;;;45.61;9.62;99577.97;5028174;28;20425;-49
2022/06/30 10:58:25;;;;;;;4.90;2.42;;;;;;;45.30;10.19;99578.13;5023688;28;20120;-47
2022/06/30 11:01:05;;;;;;;5.70;2.70;;;;;;;45.27;10.22;99569.66;5023489;28;20069;-46
2022/06/30 11:03:34;;;;;;;3.38;2.67;;;;;;;45.34;10.24;99564.66;5053065;28;20049;-50
2022/06/30 11:06:12;;;;;;;3.13;2.42;;;;;;;45.46;10.40;99552.25;5026407;28;20073;-51
2022/06/30 11:11:22;;;;;;;6.03;3.38;;;;;;;46.11;9.90;99557.56;5022742;28;20042;-49
2022/06/30 11:14:01;;;;;;;4.70;2.67;;;;;;;46.10;9.81;99561.41;5018349;28;20045;-46
2022/06/30 11:16:32;;;;;;;3.03;2.70;;;;;;;45.96;10.03;99547.50;5024561;28;20425;-49
2022/06/30 11:18:58;;;;;;;3.65;2.28;;;;;;;46.00;10.20;99547.75;5027588;28;20045;-48
2022/06/30 11:21:24;;;;;;;5.65;3.15;;;;;;;46.06;10.03;99541.13;5022575;28;20042;-48
2022/06/30 11:23:51;;;;;;;4.40;3.25;;;;;;;45.73;10.14;99551.78;5057109;28;20478;-48
2022/06/30 11:29:05;;;;;;;5.00;3.40;;;;;;;45.34;10.61;99538.00;5021232;28;20075;-46
2022/06/30 11:31:37;;;;;;;4.50;2.80;;;;;;;45.42;10.63;99533.88;5063992;28;20505;-52
2022/06/30 11:34:11;;;;;;;2.88;2.60;;;;;;;45.51;10.55;99524.75;5028554;28;20065;-47
2022/06/30 11:36:39;;;;;;;5.05;2.92;;;;;;;45.73;10.64;99539.97;5024743;28;20509;-46
2022/06/30 11:39:19;;;;;;;12.95;3.30;;;;;;;45.59;10.66;99542.56;5029649;28;20064;-47
2022/06/30 11:41:56;;;;;;;7.80;2.80;;;;;;;45.65;10.23;99533.16;5028811;28;20053;-45
2022/06/30 11:44:35;;;;;;;7.65;3.30;;;;;;;45.87;10.00;99538.25;5025978;28;20041;-46
2022/06/30 11:47:11;;;;;;;9.85;2.97;;;;;;;45.89;10.34;99531.34;5027455;28;20521;-46
2022/06/30 11:49:39;;;;;;;6.18;2.90;;;;;;;45.72;10.30;99511.69;5026962;28;20108;-48